sensor_id;sensor_type;location;lat;lon;timestamp;pressure;altitude;pressure_sealevel;temperature;humidity
29733;BME280;16643;43.158;25.302;2023-08-07T00:00:27;97270.25;;;19.41;96.79
29733;BME280;16643;43.158;25.302;2023-08-07T00:02:53;97248.47;;;19.28;96.96
29733;BME280;16643;43.158;25.302;2023-08-07T00:05:19;97277.56;;;19.37;96.27
29733;BME280;16643;43.158;25.302;2023-08-07T00:07:44;97264.28;;;19.28;97.02
29733;BME280;16643;43.158;25.302;2023-08-07T00:10:11;97287.25;;;19.37;97.27
29733;BME280;16643;43.158;25.302;2023-08-07T00:12:37;97253.84;;;19.15;97.04
29733;BME280;16643;43.158;25.302;2023-08-07T00:15:03;97274.44;;;19.21;96.40
29733;BME280;16643;43.158;25.302;2023-08-07T00:17:29;97207.28;;;18.82;96.28
29733;BME280;16643;43.158;25.302;2023-08-07T00:19:54;97260.19;;;19.12;95.96
29733;BME280;16643;43.158;25.302;2023-08-07T00:22:20;97283.44;;;19.18;95.87
29733;BME280;16643;43.158;25.302;2023-08-07T00:24:46;97256.50;;;19.04;95.85
29733;BME280;16643;43.158;25.302;2023-08-07T00:27:12;97253.88;;;19.04;95.80
29733;BME280;16643;43.158;25.302;2023-08-07T00:29:38;97283.91;;;19.12;96.01
29733;BME280;16643;43.158;25.302;2023-08-07T00:32:04;97276.63;;;19.05;95.70
29733;BME280;16643;43.158;25.302;2023-08-07T00:34:30;97287.28;;;19.03;95.69
29733;BME280;16643;43.158;25.302;2023-08-07T00:36:56;97274.94;;;18.93;96.61
29733;BME280;16643;43.158;25.302;2023-08-07T00:39:22;97291.19;;;18.98;96.49
29733;BME280;16643;43.158;25.302;2023-08-07T00:41:47;97305.94;;;19.11;96.03
29733;BME280;16643;43.158;25.302;2023-08-07T00:44:13;97298.75;;;19.02;96.34
29733;BME280;16643;43.158;25.302;2023-08-07T00:46:39;97293.72;;;18.99;96.28
29733;BME280;16643;43.158;25.302;2023-08-07T00:49:05;97307.59;;;18.90;96.64
29733;BME280;16643;43.158;25.302;2023-08-07T00:51:34;97295.63;;;18.86;96.68
29733;BME280;16643;43.158;25.302;2023-08-07T00:54:02;97298.03;;;18.89;96.02
29733;BME280;16643;43.158;25.302;2023-08-07T00:56:28;97317.31;;;19.01;97.12
29733;BME280;16643;43.158;25.302;2023-08-07T00:58:54;97323.66;;;18.98;96.82
29733;BME280;16643;43.158;25.302;2023-08-07T01:01:20;97310.75;;;18.95;96.67
29733;BME280;16643;43.158;25.302;2023-08-07T01:03:46;97306.03;;;18.88;96.93
29733;BME280;16643;43.158;25.302;2023-08-07T01:06:11;97315.75;;;18.98;97.37
29733;BME280;16643;43.158;25.302;2023-08-07T01:08:37;97285.06;;;18.75;96.89
29733;BME280;16643;43.158;25.302;2023-08-07T01:13:54;97284.59;;;18.70;96.80
29733;BME280;16643;43.158;25.302;2023-08-07T01:16:35;97330.00;;;18.84;97.00
29733;BME280;16643;43.158;25.302;2023-08-07T01:19:03;97328.44;;;18.82;96.50
29733;BME280;16643;43.158;25.302;2023-08-07T01:21:32;97327.19;;;18.75;96.50
29733;BME280;16643;43.158;25.302;2023-08-07T01:23:58;97321.44;;;18.59;96.68
29733;BME280;16643;43.158;25.302;2023-08-07T01:26:23;97311.19;;;18.54;96.79
29733;BME280;16643;43.158;25.302;2023-08-07T01:29:06;97315.03;;;18.50;96.82
29733;BME280;16643;43.158;25.302;2023-08-07T01:31:39;97338.53;;;18.64;97.08
29733;BME280;16643;43.158;25.302;2023-08-07T01:34:07;97330.84;;;18.50;97.20
29733;BME280;16643;43.158;25.302;2023-08-07T01:36:37;97329.25;;;18.47;97.53
29733;BME280;16643;43.158;25.302;2023-08-07T01:39:05;97326.00;;;18.44;97.51
29733;BME280;16643;43.158;25.302;2023-08-07T01:41:32;97356.69;;;18.56;97.85
29733;BME280;16643;43.158;25.302;2023-08-07T01:43:58;97331.97;;;18.35;97.96
29733;BME280;16643;43.158;25.302;2023-08-07T01:46:24;97350.75;;;18.41;98.77
29733;BME280;16643;43.158;25.302;2023-08-07T01:48:49;97329.06;;;18.27;98.40
29733;BME280;16643;43.158;25.302;2023-08-07T01:51:15;97355.03;;;18.31;98.65
29733;BME280;16643;43.158;25.302;2023-08-07T01:53:41;97351.34;;;18.34;98.46
29733;BME280;16643;43.158;25.302;2023-08-07T01:56:07;97348.38;;;18.38;98.49
29733;BME280;16643;43.158;25.302;2023-08-07T01:58:32;97328.34;;;18.25;98.91
29733;BME280;16643;43.158;25.302;2023-08-07T02:00:58;97360.44;;;18.41;98.71
29733;BME280;16643;43.158;25.302;2023-08-07T02:03:24;97344.13;;;18.25;98.70
29733;BME280;16643;43.158;25.302;2023-08-07T02:05:49;97347.59;;;18.25;98.65
29733;BME280;16643;43.158;25.302;2023-08-07T02:08:15;97340.50;;;18.14;98.56
29733;BME280;16643;43.158;25.302;2023-08-07T02:10:41;97344.38;;;18.09;98.82
29733;BME280;16643;43.158;25.302;2023-08-07T02:13:06;97377.81;;;18.20;99.46
29733;BME280;16643;43.158;25.302;2023-08-07T02:15:32;97368.03;;;18.22;99.63
29733;BME280;16643;43.158;25.302;2023-08-07T02:17:58;97353.47;;;18.05;98.60
29733;BME280;16643;43.158;25.302;2023-08-07T02:20:23;97338.00;;;18.00;98.58
29733;BME280;16643;43.158;25.302;2023-08-07T02:22:49;97352.22;;;17.98;98.60
29733;BME280;16643;43.158;25.302;2023-08-07T02:25:15;97382.50;;;18.03;98.99
29733;BME280;16643;43.158;25.302;2023-08-07T02:27:40;97354.47;;;17.91;98.37
29733;BME280;16643;43.158;25.302;2023-08-07T02:30:06;97375.56;;;18.02;98.57
29733;BME280;16643;43.158;25.302;2023-08-07T02:32:32;97365.25;;;17.99;98.89
29733;BME280;16643;43.158;25.302;2023-08-07T02:34:58;97370.56;;;17.87;98.88
29733;BME280;16643;43.158;25.302;2023-08-07T02:37:24;97382.94;;;17.97;98.56
29733;BME280;16643;43.158;25.302;2023-08-07T02:39:49;97361.94;;;17.85;99.14
29733;BME280;16643;43.158;25.302;2023-08-07T02:42:15;97353.03;;;17.74;98.19
29733;BME280;16643;43.158;25.302;2023-08-07T02:44:41;97392.13;;;17.92;98.29
29733;BME280;16643;43.158;25.302;2023-08-07T02:47:06;97394.03;;;17.90;98.65
29733;BME280;16643;43.158;25.302;2023-08-07T02:49:32;97381.06;;;17.87;98.74
29733;BME280;16643;43.158;25.302;2023-08-07T02:51:58;97396.53;;;17.91;98.44
29733;BME280;16643;43.158;25.302;2023-08-07T02:54:23;97399.06;;;17.93;98.11
29733;BME280;16643;43.158;25.302;2023-08-07T02:56:49;97404.16;;;17.83;98.08
29733;BME280;16643;43.158;25.302;2023-08-07T02:59:15;97421.06;;;17.92;98.34
29733;BME280;16643;43.158;25.302;2023-08-07T03:01:43;97412.03;;;17.83;98.29
29733;BME280;16643;43.158;25.302;2023-08-07T03:04:09;97389.44;;;17.68;98.49
29733;BME280;16643;43.158;25.302;2023-08-07T03:06:34;97390.66;;;17.62;98.79
29733;BME280;16643;43.158;25.302;2023-08-07T03:09:00;97396.59;;;17.66;98.90
29733;BME280;16643;43.158;25.302;2023-08-07T03:11:25;97418.53;;;17.77;98.49
29733;BME280;16643;43.158;25.302;2023-08-07T03:13:51;97396.88;;;17.61;98.35
29733;BME280;16643;43.158;25.302;2023-08-07T03:16:17;97422.44;;;17.72;98.13
29733;BME280;16643;43.158;25.302;2023-08-07T03:18:42;97422.31;;;17.73;98.30
29733;BME280;16643;43.158;25.302;2023-08-07T03:21:08;97397.31;;;17.55;97.70
29733;BME280;16643;43.158;25.302;2023-08-07T03:23:33;97396.88;;;17.61;97.32
29733;BME280;16643;43.158;25.302;2023-08-07T03:26:10;97418.84;;;17.73;97.28
29733;BME280;16643;43.158;25.302;2023-08-07T03:28:36;97420.34;;;17.64;96.47
29733;BME280;16643;43.158;25.302;2023-08-07T03:31:02;97402.78;;;17.65;96.63
29733;BME280;16643;43.158;25.302;2023-08-07T03:33:28;97341.00;;;17.21;95.96
29733;BME280;16643;43.158;25.302;2023-08-07T03:35:54;97405.09;;;17.57;95.89
29733;BME280;16643;43.158;25.302;2023-08-07T03:38:19;97429.72;;;17.68;95.80
29733;BME280;16643;43.158;25.302;2023-08-07T03:40:45;97425.91;;;17.60;95.71
29733;BME280;16643;43.158;25.302;2023-08-07T03:43:11;97408.88;;;17.53;95.71
29733;BME280;16643;43.158;25.302;2023-08-07T03:45:38;97430.97;;;17.75;95.30
29733;BME280;16643;43.158;25.302;2023-08-07T03:48:04;97424.25;;;17.71;95.51
29733;BME280;16643;43.158;25.302;2023-08-07T03:50:30;97428.97;;;17.66;94.93
29733;BME280;16643;43.158;25.302;2023-08-07T03:52:56;97432.97;;;17.59;95.05
29733;BME280;16643;43.158;25.302;2023-08-07T03:55:21;97400.16;;;17.52;95.41
29733;BME280;16643;43.158;25.302;2023-08-07T03:57:47;97414.66;;;17.58;94.26
29733;BME280;16643;43.158;25.302;2023-08-07T04:00:13;97453.78;;;17.75;94.57
29733;BME280;16643;43.158;25.302;2023-08-07T04:02:39;97431.81;;;17.63;93.89
29733;BME280;16643;43.158;25.302;2023-08-07T04:05:05;97420.75;;;17.58;93.91
29733;BME280;16643;43.158;25.302;2023-08-07T04:07:31;97433.66;;;17.61;94.21
29733;BME280;16643;43.158;25.302;2023-08-07T04:09:57;97431.72;;;17.65;94.19
29733;BME280;16643;43.158;25.302;2023-08-07T04:12:22;97430.88;;;17.64;93.79
29733;BME280;16643;43.158;25.302;2023-08-07T04:14:48;97453.03;;;17.86;93.63
29733;BME280;16643;43.158;25.302;2023-08-07T04:17:14;97444.53;;;17.82;93.50
29733;BME280;16643;43.158;25.302;2023-08-07T04:19:39;97433.78;;;17.85;93.00
29733;BME280;16643;43.158;25.302;2023-08-07T04:22:05;97423.25;;;17.85;93.06
29733;BME280;16643;43.158;25.302;2023-08-07T04:24:31;97428.84;;;17.93;92.13
29733;BME280;16643;43.158;25.302;2023-08-07T04:26:56;97437.34;;;17.97;91.99
29733;BME280;16643;43.158;25.302;2023-08-07T04:29:22;97439.00;;;18.10;92.15
29733;BME280;16643;43.158;25.302;2023-08-07T04:31:47;97466.00;;;18.25;90.23
29733;BME280;16643;43.158;25.302;2023-08-07T04:34:13;97438.66;;;18.15;89.82
29733;BME280;16643;43.158;25.302;2023-08-07T04:36:39;97453.97;;;18.34;90.39
29733;BME280;16643;43.158;25.302;2023-08-07T04:39:04;97439.22;;;18.31;89.87
29733;BME280;16643;43.158;25.302;2023-08-07T04:41:30;97410.22;;;18.20;89.01
29733;BME280;16643;43.158;25.302;2023-08-07T04:43:56;97412.59;;;18.36;87.91
29733;BME280;16643;43.158;25.302;2023-08-07T04:46:21;97420.13;;;18.40;88.67
29733;BME280;16643;43.158;25.302;2023-08-07T04:48:47;97349.53;;;18.10;87.15
29733;BME280;16643;43.158;25.302;2023-08-07T04:51:13;97426.53;;;18.62;85.77
29733;BME280;16643;43.158;25.302;2023-08-07T04:53:39;97466.56;;;18.78;85.10
29733;BME280;16643;43.158;25.302;2023-08-07T04:56:05;97469.84;;;18.93;84.50
29733;BME280;16643;43.158;25.302;2023-08-07T04:58:30;97428.72;;;18.79;83.65
29733;BME280;16643;43.158;25.302;2023-08-07T05:00:58;97451.53;;;18.91;83.65
29733;BME280;16643;43.158;25.302;2023-08-07T05:03:24;97423.34;;;18.80;82.14
29733;BME280;16643;43.158;25.302;2023-08-07T05:05:58;97449.19;;;19.10;82.23
29733;BME280;16643;43.158;25.302;2023-08-07T05:08:24;97464.06;;;19.22;81.21
29733;BME280;16643;43.158;25.302;2023-08-07T05:10:49;97455.84;;;19.27;79.85
29733;BME280;16643;43.158;25.302;2023-08-07T05:13:15;97449.59;;;19.28;80.00
29733;BME280;16643;43.158;25.302;2023-08-07T05:15:40;97432.69;;;19.31;79.13
29733;BME280;16643;43.158;25.302;2023-08-07T05:18:06;97489.97;;;19.64;78.49
29733;BME280;16643;43.158;25.302;2023-08-07T05:20:32;97485.78;;;19.61;77.35
29733;BME280;16643;43.158;25.302;2023-08-07T05:22:57;97467.88;;;19.65;78.06
29733;BME280;16643;43.158;25.302;2023-08-07T05:25:23;97452.91;;;19.65;76.86
29733;BME280;16643;43.158;25.302;2023-08-07T05:27:49;97471.63;;;19.62;77.28
29733;BME280;16643;43.158;25.302;2023-08-07T05:30:14;97446.56;;;19.68;75.64
29733;BME280;16643;43.158;25.302;2023-08-07T05:32:40;97467.66;;;19.79;75.48
29733;BME280;16643;43.158;25.302;2023-08-07T05:35:07;97459.53;;;19.82;75.54
29733;BME280;16643;43.158;25.302;2023-08-07T05:37:33;97473.44;;;19.95;73.48
29733;BME280;16643;43.158;25.302;2023-08-07T05:39:59;97476.19;;;20.16;74.19
29733;BME280;16643;43.158;25.302;2023-08-07T05:42:25;97478.94;;;20.14;73.03
29733;BME280;16643;43.158;25.302;2023-08-07T05:44:51;97478.94;;;20.25;72.64
29733;BME280;16643;43.158;25.302;2023-08-07T05:47:17;97507.53;;;20.43;72.92
29733;BME280;16643;43.158;25.302;2023-08-07T05:49:42;97505.94;;;20.51;73.02
29733;BME280;16643;43.158;25.302;2023-08-07T05:52:08;97471.72;;;20.50;71.90
29733;BME280;16643;43.158;25.302;2023-08-07T05:54:34;97521.84;;;20.72;70.70
29733;BME280;16643;43.158;25.302;2023-08-07T05:57:03;97514.75;;;20.84;70.23
29733;BME280;16643;43.158;25.302;2023-08-07T05:59:29;97516.16;;;20.99;70.44
29733;BME280;16643;43.158;25.302;2023-08-07T06:01:55;97494.28;;;20.97;70.00
29733;BME280;16643;43.158;25.302;2023-08-07T06:04:21;97514.81;;;20.93;68.73
29733;BME280;16643;43.158;25.302;2023-08-07T06:06:47;97517.56;;;21.03;69.91
29733;BME280;16643;43.158;25.302;2023-08-07T06:09:13;97481.50;;;21.02;68.30
29733;BME280;16643;43.158;25.302;2023-08-07T06:11:41;97502.47;;;21.26;67.16
29733;BME280;16643;43.158;25.302;2023-08-07T06:14:06;97524.03;;;21.42;67.65
29733;BME280;16643;43.158;25.302;2023-08-07T06:16:32;97507.31;;;21.42;67.01
29733;BME280;16643;43.158;25.302;2023-08-07T06:18:58;97500.88;;;21.55;66.10
29733;BME280;16643;43.158;25.302;2023-08-07T06:21:24;97504.84;;;21.70;66.09
29733;BME280;16643;43.158;25.302;2023-08-07T06:23:49;97534.47;;;21.85;64.79
29733;BME280;16643;43.158;25.302;2023-08-07T06:26:15;97540.59;;;21.86;64.76
29733;BME280;16643;43.158;25.302;2023-08-07T06:28:42;97531.94;;;21.84;65.13
29733;BME280;16643;43.158;25.302;2023-08-07T06:31:09;97532.66;;;22.06;64.76
29733;BME280;16643;43.158;25.302;2023-08-07T06:33:35;97514.44;;;21.92;63.29
29733;BME280;16643;43.158;25.302;2023-08-07T06:36:02;97530.78;;;22.18;63.45
29733;BME280;16643;43.158;25.302;2023-08-07T06:38:28;97503.41;;;22.08;61.92
29733;BME280;16643;43.158;25.302;2023-08-07T06:40:54;97510.47;;;22.28;62.17
29733;BME280;16643;43.158;25.302;2023-08-07T06:43:20;97493.97;;;22.25;62.28
29733;BME280;16643;43.158;25.302;2023-08-07T06:45:56;97503.06;;;22.22;61.56
29733;BME280;16643;43.158;25.302;2023-08-07T06:48:23;97517.81;;;22.25;62.16
29733;BME280;16643;43.158;25.302;2023-08-07T06:50:51;97517.81;;;-142.82;60.70
29733;BME280;16643;43.158;25.302;2023-08-07T06:53:17;97445.31;;;21.86;60.48
29733;BME280;16643;43.158;25.302;2023-08-07T06:55:43;97516.38;;;22.41;59.89
29733;BME280;16643;43.158;25.302;2023-08-07T06:58:10;97521.16;;;22.57;60.24
29733;BME280;16643;43.158;25.302;2023-08-07T07:00:36;97517.00;;;22.74;58.67
29733;BME280;16643;43.158;25.302;2023-08-07T07:03:02;97511.34;;;22.78;59.14
29733;BME280;16643;43.158;25.302;2023-08-07T07:05:29;97523.31;;;22.83;58.62
29733;BME280;16643;43.158;25.302;2023-08-07T07:07:56;97547.78;;;23.15;57.63
29733;BME280;16643;43.158;25.302;2023-08-07T07:10:21;97550.59;;;23.33;57.67
29733;BME280;16643;43.158;25.302;2023-08-07T07:12:47;97546.53;;;23.29;56.08
29733;BME280;16643;43.158;25.302;2023-08-07T07:15:14;97553.56;;;23.59;56.54
29733;BME280;16643;43.158;25.302;2023-08-07T07:17:40;97544.03;;;23.75;56.81
29733;BME280;16643;43.158;25.302;2023-08-07T07:20:06;97545.69;;;23.86;53.43
29733;BME280;16643;43.158;25.302;2023-08-07T07:22:34;97566.22;;;23.74;53.66
29733;BME280;16643;43.158;25.302;2023-08-07T07:25:00;97535.50;;;23.62;54.00
29733;BME280;16643;43.158;25.302;2023-08-07T07:27:25;97544.88;;;23.66;53.14
29733;BME280;16643;43.158;25.302;2023-08-07T07:29:52;97552.97;;;23.74;53.50
29733;BME280;16643;43.158;25.302;2023-08-07T07:32:17;97562.03;;;23.72;53.39
29733;BME280;16643;43.158;25.302;2023-08-07T07:34:43;97542.78;;;23.60;52.95
29733;BME280;16643;43.158;25.302;2023-08-07T07:37:09;97573.81;;;23.69;53.62
29733;BME280;16643;43.158;25.302;2023-08-07T07:39:35;97544.00;;;23.85;53.80
29733;BME280;16643;43.158;25.302;2023-08-07T07:42:01;97547.03;;;24.00;53.06
29733;BME280;16643;43.158;25.302;2023-08-07T07:44:28;97557.03;;;24.15;52.34
29733;BME280;16643;43.158;25.302;2023-08-07T07:46:54;97512.09;;;23.95;52.58
29733;BME280;16643;43.158;25.302;2023-08-07T07:49:20;97531.66;;;23.94;51.30
29733;BME280;16643;43.158;25.302;2023-08-07T07:51:45;97537.41;;;23.99;52.46
29733;BME280;16643;43.158;25.302;2023-08-07T07:54:11;97551.31;;;24.30;51.71
29733;BME280;16643;43.158;25.302;2023-08-07T07:56:37;97539.31;;;24.26;52.62
29733;BME280;16643;43.158;25.302;2023-08-07T07:59:03;97534.94;;;24.34;51.91
29733;BME280;16643;43.158;25.302;2023-08-07T08:01:28;97544.72;;;24.61;51.54
29733;BME280;16643;43.158;25.302;2023-08-07T08:03:54;97551.22;;;24.76;49.97
29733;BME280;16643;43.158;25.302;2023-08-07T08:06:20;97558.22;;;24.50;51.39
29733;BME280;16643;43.158;25.302;2023-08-07T08:08:45;97579.59;;;24.85;51.36
29733;BME280;16643;43.158;25.302;2023-08-07T08:11:11;97582.19;;;25.05;51.10
29733;BME280;16643;43.158;25.302;2023-08-07T08:13:37;97578.88;;;24.83;50.13
29733;BME280;16643;43.158;25.302;2023-08-07T08:16:04;97547.72;;;24.76;48.96
29733;BME280;16643;43.158;25.302;2023-08-07T08:18:30;97580.81;;;25.18;48.53
29733;BME280;16643;43.158;25.302;2023-08-07T08:20:56;97560.13;;;25.12;49.64
29733;BME280;16643;43.158;25.302;2023-08-07T08:23:22;97561.81;;;25.31;50.02
29733;BME280;16643;43.158;25.302;2023-08-07T08:25:50;97574.06;;;25.59;48.25
29733;BME280;16643;43.158;25.302;2023-08-07T08:28:16;97578.16;;;25.54;47.89
29733;BME280;16643;43.158;25.302;2023-08-07T08:30:42;97568.59;;;25.43;47.09
29733;BME280;16643;43.158;25.302;2023-08-07T08:33:08;97564.00;;;25.53;46.82
29733;BME280;16643;43.158;25.302;2023-08-07T08:35:37;97555.66;;;25.48;47.38
29733;BME280;16643;43.158;25.302;2023-08-07T08:38:03;97575.44;;;25.63;46.43
29733;BME280;16643;43.158;25.302;2023-08-07T08:40:30;97572.69;;;25.55;44.77
29733;BME280;16643;43.158;25.302;2023-08-07T08:42:57;97580.38;;;25.41;45.53
29733;BME280;16643;43.158;25.302;2023-08-07T08:45:26;97544.63;;;25.25;45.29
29733;BME280;16643;43.158;25.302;2023-08-07T08:47:55;97568.00;;;25.49;47.91
29733;BME280;16643;43.158;25.302;2023-08-07T08:50:24;97568.00;;;25.49;44.93
29733;BME280;16643;43.158;25.302;2023-08-07T08:52:51;97557.25;;;25.59;45.67
29733;BME280;16643;43.158;25.302;2023-08-07T08:55:20;97546.34;;;25.52;45.53
29733;BME280;16643;43.158;25.302;2023-08-07T08:57:46;97584.03;;;25.93;44.55
29733;BME280;16643;43.158;25.302;2023-08-07T09:00:13;97550.97;;;25.86;45.05
29733;BME280;16643;43.158;25.302;2023-08-07T09:02:49;97573.84;;;26.14;46.04
29733;BME280;16643;43.158;25.302;2023-08-07T09:05:15;97556.31;;;26.12;45.01
29733;BME280;16643;43.158;25.302;2023-08-07T09:07:41;97551.84;;;26.12;46.77
29733;BME280;16643;43.158;25.302;2023-08-07T09:10:09;97583.75;;;26.56;44.07
29733;BME280;16643;43.158;25.302;2023-08-07T09:12:40;97544.31;;;26.33;44.59
29733;BME280;16643;43.158;25.302;2023-08-07T09:15:07;97542.91;;;26.55;45.02
29733;BME280;16643;43.158;25.302;2023-08-07T09:17:39;97563.94;;;26.58;42.34
29733;BME280;16643;43.158;25.302;2023-08-07T09:20:06;97568.75;;;26.55;42.30
29733;BME280;16643;43.158;25.302;2023-08-07T09:22:36;97564.81;;;26.67;43.44
29733;BME280;16643;43.158;25.302;2023-08-07T09:25:02;97568.63;;;26.64;42.51
29733;BME280;16643;43.158;25.302;2023-08-07T09:27:28;97572.47;;;26.62;41.72
29733;BME280;16643;43.158;25.302;2023-08-07T09:29:55;97571.19;;;26.74;42.37
29733;BME280;16643;43.158;25.302;2023-08-07T09:32:22;97578.66;;;27.04;41.60
29733;BME280;16643;43.158;25.302;2023-08-07T09:34:50;97564.53;;;27.28;42.72
29733;BME280;16643;43.158;25.302;2023-08-07T09:37:19;97559.50;;;27.25;41.90
29733;BME280;16643;43.158;25.302;2023-08-07T09:39:46;97552.16;;;27.19;43.00
29733;BME280;16643;43.158;25.302;2023-08-07T09:42:15;97580.72;;;27.35;42.95
29733;BME280;16643;43.158;25.302;2023-08-07T09:44:41;97570.22;;;27.50;41.98
29733;BME280;16643;43.158;25.302;2023-08-07T09:47:18;97583.94;;;27.79;42.33
29733;BME280;16643;43.158;25.302;2023-08-07T09:49:45;97570.91;;;27.68;40.64
29733;BME280;16643;43.158;25.302;2023-08-07T09:52:14;97585.63;;;27.80;39.53
29733;BME280;16643;43.158;25.302;2023-08-07T09:54:41;97581.59;;;27.68;40.50
29733;BME280;16643;43.158;25.302;2023-08-07T09:57:07;97546.34;;;27.48;40.88
29733;BME280;16643;43.158;25.302;2023-08-07T09:59:33;97571.94;;;27.83;41.50
29733;BME280;16643;43.158;25.302;2023-08-07T10:02:01;97566.25;;;27.86;40.69
29733;BME280;16643;43.158;25.302;2023-08-07T10:04:30;97577.06;;;28.17;41.81
29733;BME280;16643;43.158;25.302;2023-08-07T10:06:56;97567.59;;;27.98;40.22
29733;BME280;16643;43.158;25.302;2023-08-07T10:09:23;97582.28;;;27.94;40.18
29733;BME280;16643;43.158;25.302;2023-08-07T10:11:49;97585.25;;;28.15;40.11
29733;BME280;16643;43.158;25.302;2023-08-07T10:14:16;97553.66;;;28.11;39.74
29733;BME280;16643;43.158;25.302;2023-08-07T10:16:42;97563.53;;;28.27;39.73
29733;BME280;16643;43.158;25.302;2023-08-07T10:19:09;97567.22;;;28.26;37.46
29733;BME280;16643;43.158;25.302;2023-08-07T10:21:36;97581.44;;;28.18;37.11
29733;BME280;16643;43.158;25.302;2023-08-07T10:24:04;97596.13;;;28.14;36.93
29733;BME280;16643;43.158;25.302;2023-08-07T10:26:33;97580.22;;;28.37;36.47
29733;BME280;16643;43.158;25.302;2023-08-07T10:29:00;97576.09;;;28.18;38.54
29733;BME280;16643;43.158;25.302;2023-08-07T10:31:28;97569.06;;;28.25;38.10
29733;BME280;16643;43.158;25.302;2023-08-07T10:33:55;97573.84;;;28.46;38.79
29733;BME280;16643;43.158;25.302;2023-08-07T10:36:21;97563.31;;;28.44;38.52
29733;BME280;16643;43.158;25.302;2023-08-07T10:38:50;97578.78;;;28.73;39.20
29733;BME280;16643;43.158;25.302;2023-08-07T10:41:18;97544.88;;;28.66;39.34
29733;BME280;16643;43.158;25.302;2023-08-07T10:43:46;97561.94;;;28.57;36.53
29733;BME280;16643;43.158;25.302;2023-08-07T10:46:16;97560.41;;;28.62;38.71
29733;BME280;16643;43.158;25.302;2023-08-07T10:48:48;97555.75;;;28.56;38.15
29733;BME280;16643;43.158;25.302;2023-08-07T10:51:19;97518.53;;;28.38;38.14
29733;BME280;16643;43.158;25.302;2023-08-07T10:56:34;97523.34;;;28.51;37.13
29733;BME280;16643;43.158;25.302;2023-08-07T10:59:12;97560.53;;;28.85;38.82
29733;BME280;16643;43.158;25.302;2023-08-07T11:01:42;97529.66;;;28.66;37.20
29733;BME280;16643;43.158;25.302;2023-08-07T11:04:11;97563.97;;;28.54;36.31
29733;BME280;16643;43.158;25.302;2023-08-07T11:06:40;97567.34;;;28.40;37.11
29733;BME280;16643;43.158;25.302;2023-08-07T11:09:07;97524.47;;;28.57;38.00
29733;BME280;16643;43.158;25.302;2023-08-07T11:14:09;97554.16;;;28.86;34.61
29733;BME280;16643;43.158;25.302;2023-08-07T11:16:37;97556.97;;;28.93;34.69
29733;BME280;16643;43.158;25.302;2023-08-07T11:19:03;97525.81;;;29.00;35.47
29733;BME280;16643;43.158;25.302;2023-08-07T11:21:33;97557.06;;;29.38;34.77
29733;BME280;16643;43.158;25.302;2023-08-07T11:23:59;97548.69;;;29.33;36.72
29733;BME280;16643;43.158;25.302;2023-08-07T11:26:25;97538.56;;;29.20;34.84
29733;BME280;16643;43.158;25.302;2023-08-07T11:28:51;97540.97;;;29.38;36.09
29733;BME280;16643;43.158;25.302;2023-08-07T11:31:18;97533.03;;;29.22;34.04
29733;BME280;16643;43.158;25.302;2023-08-07T11:33:44;97549.03;;;29.30;32.32
29733;BME280;16643;43.158;25.302;2023-08-07T11:36:11;97552.78;;;29.21;32.75
29733;BME280;16643;43.158;25.302;2023-08-07T11:38:41;97547.28;;;29.14;33.99
29733;BME280;16643;43.158;25.302;2023-08-07T11:41:15;97546.22;;;29.23;32.81
29733;BME280;16643;43.158;25.302;2023-08-07T11:43:41;97494.13;;;28.80;33.32
29733;BME280;16643;43.158;25.302;2023-08-07T11:46:08;97550.88;;;29.07;35.25
29733;BME280;16643;43.158;25.302;2023-08-07T11:48:36;97499.13;;;28.83;33.91
29733;BME280;16643;43.158;25.302;2023-08-07T11:51:03;97538.03;;;29.25;34.32
29733;BME280;16643;43.158;25.302;2023-08-07T11:53:31;97525.28;;;29.27;33.48
29733;BME280;16643;43.158;25.302;2023-08-07T11:55:58;97546.47;;;29.45;34.30
29733;BME280;16643;43.158;25.302;2023-08-07T11:58:27;97524.06;;;29.38;34.03
29733;BME280;16643;43.158;25.302;2023-08-07T12:00:54;97547.94;;;29.47;33.82
29733;BME280;16643;43.158;25.302;2023-08-07T12:03:35;97531.28;;;29.37;34.22
29733;BME280;16643;43.158;25.302;2023-08-07T12:06:03;97535.38;;;29.48;32.63
29733;BME280;16643;43.158;25.302;2023-08-07T12:08:37;97509.81;;;29.14;32.86
29733;BME280;16643;43.158;25.302;2023-08-07T12:11:05;97521.84;;;29.18;32.43
29733;BME280;16643;43.158;25.302;2023-08-07T12:13:31;97508.38;;;29.26;33.42
29733;BME280;16643;43.158;25.302;2023-08-07T12:15:58;97510.88;;;29.28;32.93
29733;BME280;16643;43.158;25.302;2023-08-07T12:18:26;97521.69;;;29.35;31.06
29733;BME280;16643;43.158;25.302;2023-08-07T12:20:59;97525.22;;;29.43;30.92
29733;BME280;16643;43.158;25.302;2023-08-07T12:23:26;97505.00;;;29.33;32.42
29733;BME280;16643;43.158;25.302;2023-08-07T12:25:52;97515.56;;;29.57;33.26
29733;BME280;16643;43.158;25.302;2023-08-07T12:28:18;97513.41;;;29.52;32.38
29733;BME280;16643;43.158;25.302;2023-08-07T12:30:47;97543.22;;;29.72;32.23
29733;BME280;16643;43.158;25.302;2023-08-07T12:33:13;97536.56;;;29.68;31.88
29733;BME280;16643;43.158;25.302;2023-08-07T12:35:40;97519.28;;;29.71;32.49
29733;BME280;16643;43.158;25.302;2023-08-07T12:38:07;97537.72;;;29.88;31.51
29733;BME280;16643;43.158;25.302;2023-08-07T12:40:34;97535.19;;;29.72;31.95
29733;BME280;16643;43.158;25.302;2023-08-07T12:43:04;97528.53;;;29.68;31.94
29733;BME280;16643;43.158;25.302;2023-08-07T12:45:30;97529.38;;;29.83;32.15
29733;BME280;16643;43.158;25.302;2023-08-07T12:47:56;97525.34;;;29.87;31.91
29733;BME280;16643;43.158;25.302;2023-08-07T12:50:22;97527.88;;;29.81;30.92
29733;BME280;16643;43.158;25.302;2023-08-07T12:52:47;97509.56;;;29.70;31.41
29733;BME280;16643;43.158;25.302;2023-08-07T12:55:13;97512.94;;;29.86;31.70